Terminal Aerodrome Forecast
Issued by NWS Goodland, KS

Home | Current Version | Previous Version | Text Only | Print | Product List | Glossary On
Versions: 1 2 3 4 5 6 7 8 9 10 11 12 13 14 15 16 17 18 19 20 21 22
000
FTUS43 KGLD 121120
TAFGLD
TAF
KGLD 121120Z 1212/1312 01012KT P6SM OVC005
     FM121400 01011KT P6SM OVC005
     FM121700 02010KT P6SM SCT005 BKN015
     FM122000 03008KT P6SM BKN035
     FM122200 05007KT P6SM SCT045
     FM130100 09006KT P6SM FEW045
     FM130300 15005KT P6SM FEW045
     FM130900 18011KT 6SM BR FEW005 SCT030
      TEMPO 1309/1312 3SM BR BKN003=

USA.gov is the U.S. government's official web portal to all federal, state and local government web resources and services.